sensor_id;sensor_type;location;lat;lon;timestamp;pressure;altitude;pressure_sealevel;temperature;humidity
24752;BME280;27246;52.376;4.628;2023-02-14T00:02:19;103359.59;;;6.09;84.37
24752;BME280;27246;52.376;4.628;2023-02-14T00:07:21;103368.38;;;6.00;84.15
24752;BME280;27246;52.376;4.628;2023-02-14T00:12:23;103366.19;;;5.91;84.41
24752;BME280;27246;52.376;4.628;2023-02-14T00:17:24;103356.22;;;5.90;84.05
24752;BME280;27246;52.376;4.628;2023-02-14T00:22:26;103354.13;;;5.79;83.84
24752;BME280;27246;52.376;4.628;2023-02-14T00:27:28;103348.53;;;5.80;84.13
24752;BME280;27246;52.376;4.628;2023-02-14T00:32:29;103351.47;;;5.77;84.01
24752;BME280;27246;52.376;4.628;2023-02-14T00:37:32;103340.97;;;5.86;84.09
24752;BME280;27246;52.376;4.628;2023-02-14T00:42:33;103336.50;;;5.69;83.88
24752;BME280;27246;52.376;4.628;2023-02-14T00:47:35;103336.59;;;5.67;83.74
24752;BME280;27246;52.376;4.628;2023-02-14T00:52:37;103322.72;;;5.70;84.06
24752;BME280;27246;52.376;4.628;2023-02-14T00:57:38;103330.25;;;5.67;83.53
24752;BME280;27246;52.376;4.628;2023-02-14T01:02:40;103331.03;;;5.69;83.58
24752;BME280;27246;52.376;4.628;2023-02-14T01:07:42;103330.41;;;5.64;83.28
24752;BME280;27246;52.376;4.628;2023-02-14T01:12:44;103324.91;;;5.49;83.42
24752;BME280;27246;52.376;4.628;2023-02-14T01:17:45;103326.47;;;5.53;83.55
24752;BME280;27246;52.376;4.628;2023-02-14T01:22:47;103324.25;;;5.60;83.50
24752;BME280;27246;52.376;4.628;2023-02-14T01:27:49;103323.59;;;5.40;83.49
24752;BME280;27246;52.376;4.628;2023-02-14T01:32:50;103319.16;;;5.38;83.64
24752;BME280;27246;52.376;4.628;2023-02-14T01:37:53;103310.72;;;5.43;83.71
24752;BME280;27246;52.376;4.628;2023-02-14T01:42:54;103303.38;;;5.43;83.44
24752;BME280;27246;52.376;4.628;2023-02-14T01:47:57;103307.78;;;5.46;84.00
24752;BME280;27246;52.376;4.628;2023-02-14T01:53:05;103312.28;;;5.47;84.21
24752;BME280;27246;52.376;4.628;2023-02-14T01:58:20;103316.63;;;5.19;83.44
24752;BME280;27246;52.376;4.628;2023-02-14T02:03:36;103308.94;;;5.10;84.04
24752;BME280;27246;52.376;4.628;2023-02-14T02:08:47;103315.22;;;5.28;84.22
24752;BME280;27246;52.376;4.628;2023-02-14T02:13:51;103310.66;;;5.12;83.89
24752;BME280;27246;52.376;4.628;2023-02-14T02:19:12;103304.47;;;5.09;84.01
24752;BME280;27246;52.376;4.628;2023-02-14T02:24:36;103305.34;;;5.09;83.93
24752;BME280;27246;52.376;4.628;2023-02-14T02:51:00;103300.13;;;4.89;83.74
24752;BME280;27246;52.376;4.628;2023-02-14T02:56:31;103295.03;;;4.98;84.49
24752;BME280;27246;52.376;4.628;2023-02-14T03:02:11;103298.56;;;5.00;84.25
24752;BME280;27246;52.376;4.628;2023-02-14T03:07:16;103288.88;;;4.95;84.02
24752;BME280;27246;52.376;4.628;2023-02-14T03:17:58;103294.03;;;4.68;84.27
24752;BME280;27246;52.376;4.628;2023-02-14T03:23:46;103294.56;;;4.74;84.58
24752;BME280;27246;52.376;4.628;2023-02-14T03:28:57;103288.72;;;4.65;84.10
24752;BME280;27246;52.376;4.628;2023-02-14T03:34:08;103287.78;;;4.66;84.01
24752;BME280;27246;52.376;4.628;2023-02-14T03:39:37;103285.50;;;4.74;83.67
24752;BME280;27246;52.376;4.628;2023-02-14T03:44:43;103281.25;;;4.68;83.98
24752;BME280;27246;52.376;4.628;2023-02-14T03:49:50;103278.69;;;4.65;83.45
24752;BME280;27246;52.376;4.628;2023-02-14T03:54:56;103272.34;;;4.65;83.85
24752;BME280;27246;52.376;4.628;2023-02-14T03:59:58;103277.19;;;4.75;84.01
24752;BME280;27246;52.376;4.628;2023-02-14T04:05:03;103277.81;;;4.65;84.58
24752;BME280;27246;52.376;4.628;2023-02-14T04:10:08;103269.19;;;4.72;84.72
24752;BME280;27246;52.376;4.628;2023-02-14T04:15:11;103273.47;;;4.60;84.14
24752;BME280;27246;52.376;4.628;2023-02-14T04:20:12;103275.56;;;4.39;84.39
24752;BME280;27246;52.376;4.628;2023-02-14T04:25:15;103268.72;;;4.48;84.52
24752;BME280;27246;52.376;4.628;2023-02-14T04:30:16;103278.31;;;4.55;84.58
24752;BME280;27246;52.376;4.628;2023-02-14T04:35:18;103279.91;;;4.59;84.78
24752;BME280;27246;52.376;4.628;2023-02-14T04:40:20;103284.06;;;4.67;84.41
24752;BME280;27246;52.376;4.628;2023-02-14T04:45:22;103284.41;;;4.60;84.02
24752;BME280;27246;52.376;4.628;2023-02-14T04:50:25;103275.56;;;4.55;85.44
24752;BME280;27246;52.376;4.628;2023-02-14T04:55:27;103276.38;;;4.57;86.05
24752;BME280;27246;52.376;4.628;2023-02-14T05:00:29;103272.53;;;4.61;85.65
24752;BME280;27246;52.376;4.628;2023-02-14T05:05:30;103265.28;;;4.60;87.57
24752;BME280;27246;52.376;4.628;2023-02-14T05:10:32;103265.28;;;4.60;87.26
24752;BME280;27246;52.376;4.628;2023-02-14T05:15:34;103269.31;;;4.53;87.60
24752;BME280;27246;52.376;4.628;2023-02-14T05:20:38;103258.25;;;4.56;87.63
24752;BME280;27246;52.376;4.628;2023-02-14T05:25:40;103262.97;;;4.53;87.44
24752;BME280;27246;52.376;4.628;2023-02-14T05:30:42;103267.72;;;4.49;87.44
24752;BME280;27246;52.376;4.628;2023-02-14T05:35:44;103258.09;;;4.59;87.15
24752;BME280;27246;52.376;4.628;2023-02-14T05:40:46;103260.19;;;4.54;86.87
24752;BME280;27246;52.376;4.628;2023-02-14T05:45:47;103259.91;;;4.59;87.37
24752;BME280;27246;52.376;4.628;2023-02-14T05:50:49;103250.78;;;4.60;87.48
24752;BME280;27246;52.376;4.628;2023-02-14T05:55:51;103256.03;;;4.63;87.99
24752;BME280;27246;52.376;4.628;2023-02-14T06:00:52;103248.13;;;4.58;90.35
24752;BME280;27246;52.376;4.628;2023-02-14T06:05:54;103238.63;;;4.66;93.65
24752;BME280;27246;52.376;4.628;2023-02-14T06:10:56;103253.56;;;4.58;93.92
24752;BME280;27246;52.376;4.628;2023-02-14T06:15:58;103246.53;;;4.54;94.18
24752;BME280;27246;52.376;4.628;2023-02-14T06:21:00;103248.81;;;4.46;95.06
24752;BME280;27246;52.376;4.628;2023-02-14T06:26:02;103245.09;;;4.31;96.68
24752;BME280;27246;52.376;4.628;2023-02-14T06:31:04;103257.03;;;4.29;97.85
24752;BME280;27246;52.376;4.628;2023-02-14T06:36:06;103254.66;;;4.22;98.31
24752;BME280;27246;52.376;4.628;2023-02-14T06:41:09;103235.06;;;4.32;97.98
24752;BME280;27246;52.376;4.628;2023-02-14T06:46:11;103243.72;;;4.22;98.96
24752;BME280;27246;52.376;4.628;2023-02-14T06:51:12;103244.06;;;4.16;98.33
24752;BME280;27246;52.376;4.628;2023-02-14T06:56:14;103248.34;;;4.05;98.65
24752;BME280;27246;52.376;4.628;2023-02-14T07:01:16;103245.16;;;3.96;99.78
24752;BME280;27246;52.376;4.628;2023-02-14T07:06:17;103251.34;;;3.82;99.82
24752;BME280;27246;52.376;4.628;2023-02-14T07:11:19;103255.44;;;3.74;100.00
24752;BME280;27246;52.376;4.628;2023-02-14T07:16:21;103250.88;;;3.57;100.00
24752;BME280;27246;52.376;4.628;2023-02-14T07:21:22;103256.78;;;3.48;100.00
24752;BME280;27246;52.376;4.628;2023-02-14T07:26:24;103254.31;;;3.43;100.00
24752;BME280;27246;52.376;4.628;2023-02-14T07:31:26;103264.09;;;3.47;100.00
24752;BME280;27246;52.376;4.628;2023-02-14T07:36:28;103267.19;;;3.39;100.00
24752;BME280;27246;52.376;4.628;2023-02-14T07:41:29;103264.78;;;3.33;100.00
24752;BME280;27246;52.376;4.628;2023-02-14T07:46:31;103259.69;;;3.62;100.00
24752;BME280;27246;52.376;4.628;2023-02-14T07:51:33;103260.09;;;3.72;99.87
24752;BME280;27246;52.376;4.628;2023-02-14T07:56:34;103251.50;;;3.79;99.40
24752;BME280;27246;52.376;4.628;2023-02-14T08:01:36;103261.03;;;3.88;98.57
24752;BME280;27246;52.376;4.628;2023-02-14T08:06:39;103263.53;;;3.75;97.91
24752;BME280;27246;52.376;4.628;2023-02-14T08:11:41;103260.34;;;3.67;98.13
24752;BME280;27246;52.376;4.628;2023-02-14T08:17:01;103265.63;;;3.70;98.04
24752;BME280;27246;52.376;4.628;2023-02-14T08:22:03;103263.13;;;3.66;99.40
24752;BME280;27246;52.376;4.628;2023-02-14T08:27:05;103259.53;;;3.65;98.86
24752;BME280;27246;52.376;4.628;2023-02-14T08:32:07;103268.91;;;3.77;98.96
24752;BME280;27246;52.376;4.628;2023-02-14T08:37:09;103269.00;;;3.93;98.58
24752;BME280;27246;52.376;4.628;2023-02-14T08:42:10;103272.00;;;4.04;98.75
24752;BME280;27246;52.376;4.628;2023-02-14T08:47:13;103269.75;;;4.12;97.58
24752;BME280;27246;52.376;4.628;2023-02-14T08:52:15;103270.53;;;4.32;98.73
24752;BME280;27246;52.376;4.628;2023-02-14T08:57:16;103263.81;;;4.71;97.20
24752;BME280;27246;52.376;4.628;2023-02-14T09:02:18;103261.34;;;4.66;96.50
24752;BME280;27246;52.376;4.628;2023-02-14T09:07:20;103255.44;;;4.74;96.96
24752;BME280;27246;52.376;4.628;2023-02-14T09:12:22;103260.31;;;5.00;95.09
24752;BME280;27246;52.376;4.628;2023-02-14T09:17:24;103259.19;;;5.05;94.60
24752;BME280;27246;52.376;4.628;2023-02-14T09:22:25;103256.44;;;5.20;94.94
24752;BME280;27246;52.376;4.628;2023-02-14T09:27:27;103257.72;;;5.75;92.92
24752;BME280;27246;52.376;4.628;2023-02-14T09:32:29;103253.00;;;6.22;92.08
24752;BME280;27246;52.376;4.628;2023-02-14T09:37:31;103252.59;;;6.28;90.40
24752;BME280;27246;52.376;4.628;2023-02-14T09:48:00;103259.38;;;6.93;88.34
24752;BME280;27246;52.376;4.628;2023-02-14T09:58:54;103257.88;;;7.43;86.95
24752;BME280;27246;52.376;4.628;2023-02-14T10:14:36;103256.19;;;7.40;85.81
24752;BME280;27246;52.376;4.628;2023-02-14T10:20:02;103253.97;;;7.33;84.98
24752;BME280;27246;52.376;4.628;2023-02-14T10:25:14;103250.06;;;7.90;84.79
24752;BME280;27246;52.376;4.628;2023-02-14T10:30:21;103248.53;;;7.86;83.25
24752;BME280;27246;52.376;4.628;2023-02-14T10:46:00;103243.44;;;8.69;80.25
24752;BME280;27246;52.376;4.628;2023-02-14T10:51:23;103231.91;;;9.01;79.73
24752;BME280;27246;52.376;4.628;2023-02-14T10:56:38;103227.75;;;9.32;78.23
24752;BME280;27246;52.376;4.628;2023-02-14T11:01:41;103218.56;;;9.45;76.59
24752;BME280;27246;52.376;4.628;2023-02-14T11:06:45;103221.94;;;9.24;77.51
24752;BME280;27246;52.376;4.628;2023-02-14T11:11:54;103210.03;;;9.48;77.78
24752;BME280;27246;52.376;4.628;2023-02-14T11:16:59;103217.88;;;9.65;76.43
24752;BME280;27246;52.376;4.628;2023-02-14T11:22:01;103213.47;;;9.63;76.39
24752;BME280;27246;52.376;4.628;2023-02-14T11:32:14;103196.81;;;9.64;76.81
24752;BME280;27246;52.376;4.628;2023-02-14T11:47:36;103166.13;;;10.15;74.53
24752;BME280;27246;52.376;4.628;2023-02-14T11:52:48;103178.88;;;10.39;73.97
24752;BME280;27246;52.376;4.628;2023-02-14T11:57:52;103158.97;;;10.47;72.93
24752;BME280;27246;52.376;4.628;2023-02-14T12:02:55;103153.56;;;10.56;73.41
24752;BME280;27246;52.376;4.628;2023-02-14T12:08:04;103139.31;;;10.51;73.12
24752;BME280;27246;52.376;4.628;2023-02-14T12:18:38;103131.97;;;10.84;72.35
24752;BME280;27246;52.376;4.628;2023-02-14T12:24:02;103122.97;;;10.71;72.72
24752;BME280;27246;52.376;4.628;2023-02-14T12:29:18;103115.97;;;10.67;73.35
24752;BME280;27246;52.376;4.628;2023-02-14T12:34:22;103105.78;;;10.78;73.01
24752;BME280;27246;52.376;4.628;2023-02-14T13:00:57;103086.97;;;10.40;74.36
24752;BME280;27246;52.376;4.628;2023-02-14T13:06:30;103093.63;;;10.37;73.90
24752;BME280;27246;52.376;4.628;2023-02-14T13:16:56;103077.97;;;10.38;73.50
24752;BME280;27246;52.376;4.628;2023-02-14T13:22:01;103067.69;;;10.40;73.79
24752;BME280;27246;52.376;4.628;2023-02-14T13:27:06;103058.78;;;10.36;73.83
24752;BME280;27246;52.376;4.628;2023-02-14T13:32:11;103066.94;;;10.38;73.36
24752;BME280;27246;52.376;4.628;2023-02-14T13:37:20;103051.16;;;10.40;73.65
24752;BME280;27246;52.376;4.628;2023-02-14T13:42:49;103055.91;;;10.38;74.08
24752;BME280;27246;52.376;4.628;2023-02-14T13:48:22;103046.16;;;10.34;74.55
24752;BME280;27246;52.376;4.628;2023-02-14T13:53:36;103039.28;;;10.28;74.04
24752;BME280;27246;52.376;4.628;2023-02-14T13:58:53;103037.56;;;10.16;75.89
24752;BME280;27246;52.376;4.628;2023-02-14T14:04:02;103037.78;;;10.24;74.01
24752;BME280;27246;52.376;4.628;2023-02-14T14:09:04;103036.81;;;10.25;73.47
24752;BME280;27246;52.376;4.628;2023-02-14T14:24:32;103035.91;;;10.25;73.38
24752;BME280;27246;52.376;4.628;2023-02-14T14:29:39;103032.38;;;10.34;74.26
24752;BME280;27246;52.376;4.628;2023-02-14T14:34:48;103028.59;;;10.35;74.76
24752;BME280;27246;52.376;4.628;2023-02-14T14:39:58;103028.38;;;10.27;75.37
24752;BME280;27246;52.376;4.628;2023-02-14T14:45:04;103019.38;;;10.25;75.97
24752;BME280;27246;52.376;4.628;2023-02-14T14:50:14;103017.53;;;10.14;76.50
24752;BME280;27246;52.376;4.628;2023-02-14T14:55:20;103023.44;;;9.98;76.49
24752;BME280;27246;52.376;4.628;2023-02-14T15:00:27;103021.94;;;9.94;76.75
24752;BME280;27246;52.376;4.628;2023-02-14T15:05:36;103021.94;;;9.94;76.07
24752;BME280;27246;52.376;4.628;2023-02-14T15:10:41;103018.09;;;9.85;76.27
24752;BME280;27246;52.376;4.628;2023-02-14T15:15:49;103018.97;;;9.86;75.92
24752;BME280;27246;52.376;4.628;2023-02-14T15:20:52;103023.47;;;9.75;75.80
24752;BME280;27246;52.376;4.628;2023-02-14T15:25:54;103026.22;;;9.64;76.32
24752;BME280;27246;52.376;4.628;2023-02-14T15:31:05;103029.34;;;9.59;75.44
24752;BME280;27246;52.376;4.628;2023-02-14T15:36:16;103017.47;;;9.48;75.96
24752;BME280;27246;52.376;4.628;2023-02-14T15:41:19;103017.31;;;9.38;76.30
24752;BME280;27246;52.376;4.628;2023-02-14T15:46:36;103020.72;;;9.30;76.90
24752;BME280;27246;52.376;4.628;2023-02-14T15:51:40;103005.94;;;9.31;77.30
24752;BME280;27246;52.376;4.628;2023-02-14T15:56:45;103006.97;;;9.30;76.51
24752;BME280;27246;52.376;4.628;2023-02-14T16:01:52;103001.16;;;9.22;77.29
24752;BME280;27246;52.376;4.628;2023-02-14T16:07:18;102995.78;;;9.20;77.89
24752;BME280;27246;52.376;4.628;2023-02-14T16:12:35;103003.16;;;9.20;77.23
24752;BME280;27246;52.376;4.628;2023-02-14T16:17:37;102995.03;;;9.18;77.56
24752;BME280;27246;52.376;4.628;2023-02-14T16:22:40;102988.66;;;9.18;77.42
24752;BME280;27246;52.376;4.628;2023-02-14T16:27:42;102981.41;;;9.17;77.66
24752;BME280;27246;52.376;4.628;2023-02-14T16:32:48;102987.00;;;9.15;77.66
24752;BME280;27246;52.376;4.628;2023-02-14T16:37:51;102983.38;;;9.15;78.13
24752;BME280;27246;52.376;4.628;2023-02-14T16:42:53;102979.84;;;9.01;78.90
24752;BME280;27246;52.376;4.628;2023-02-14T16:47:56;102987.00;;;9.04;78.96
24752;BME280;27246;52.376;4.628;2023-02-14T16:52:59;102979.47;;;8.95;79.37
24752;BME280;27246;52.376;4.628;2023-02-14T16:58:02;102982.34;;;8.93;79.42
24752;BME280;27246;52.376;4.628;2023-02-14T17:03:04;102971.06;;;8.85;79.56
24752;BME280;27246;52.376;4.628;2023-02-14T17:08:11;102976.19;;;8.78;80.33
24752;BME280;27246;52.376;4.628;2023-02-14T17:13:17;102979.31;;;8.74;80.29
24752;BME280;27246;52.376;4.628;2023-02-14T17:18:22;102985.16;;;8.69;80.91
24752;BME280;27246;52.376;4.628;2023-02-14T17:23:25;102978.78;;;8.69;80.45
24752;BME280;27246;52.376;4.628;2023-02-14T17:28:28;102984.88;;;8.61;80.62
24752;BME280;27246;52.376;4.628;2023-02-14T17:33:31;102986.47;;;8.52;81.23
24752;BME280;27246;52.376;4.628;2023-02-14T17:38:34;102980.44;;;8.47;81.72
24752;BME280;27246;52.376;4.628;2023-02-14T17:43:39;102982.44;;;8.45;81.34
24752;BME280;27246;52.376;4.628;2023-02-14T17:48:49;102981.16;;;8.38;81.81
24752;BME280;27246;52.376;4.628;2023-02-14T17:53:51;102986.00;;;8.34;82.00
24752;BME280;27246;52.376;4.628;2023-02-14T17:58:53;102981.09;;;8.27;82.97
24752;BME280;27246;52.376;4.628;2023-02-14T18:03:55;102989.59;;;8.24;82.36
24752;BME280;27246;52.376;4.628;2023-02-14T18:08:57;102988.06;;;8.19;83.06
24752;BME280;27246;52.376;4.628;2023-02-14T18:13:59;102984.78;;;8.14;82.93
24752;BME280;27246;52.376;4.628;2023-02-14T18:19:03;102983.72;;;8.04;83.16
24752;BME280;27246;52.376;4.628;2023-02-14T18:24:06;102980.47;;;7.99;83.48
24752;BME280;27246;52.376;4.628;2023-02-14T18:29:08;102987.50;;;7.90;83.73
24752;BME280;27246;52.376;4.628;2023-02-14T18:34:11;102979.63;;;7.86;83.75
24752;BME280;27246;52.376;4.628;2023-02-14T18:39:13;102970.97;;;7.79;83.99
24752;BME280;27246;52.376;4.628;2023-02-14T18:44:15;102973.19;;;7.74;83.83
24752;BME280;27246;52.376;4.628;2023-02-14T18:49:17;102967.16;;;7.69;83.93
24752;BME280;27246;52.376;4.628;2023-02-14T18:54:19;102976.63;;;7.65;84.07
24752;BME280;27246;52.376;4.628;2023-02-14T18:59:20;102966.72;;;7.62;84.72
24752;BME280;27246;52.376;4.628;2023-02-14T19:04:22;102970.16;;;7.53;84.34
24752;BME280;27246;52.376;4.628;2023-02-14T19:09:24;102969.72;;;7.46;84.86
24752;BME280;27246;52.376;4.628;2023-02-14T19:14:27;102959.97;;;7.42;84.67
24752;BME280;27246;52.376;4.628;2023-02-14T19:19:30;102959.16;;;7.40;84.81
24752;BME280;27246;52.376;4.628;2023-02-14T19:24:32;102957.09;;;7.31;84.64
24752;BME280;27246;52.376;4.628;2023-02-14T19:29:34;102962.94;;;7.26;84.99
24752;BME280;27246;52.376;4.628;2023-02-14T19:34:35;102964.13;;;7.22;84.35
24752;BME280;27246;52.376;4.628;2023-02-14T19:39:38;102950.97;;;7.14;84.92
24752;BME280;27246;52.376;4.628;2023-02-14T19:44:40;102953.81;;;7.13;84.82
24752;BME280;27246;52.376;4.628;2023-02-14T19:49:42;102942.75;;;7.01;84.94
24752;BME280;27246;52.376;4.628;2023-02-14T19:54:44;102950.09;;;7.01;85.10
24752;BME280;27246;52.376;4.628;2023-02-14T19:59:46;102955.91;;;6.96;85.35
24752;BME280;27246;52.376;4.628;2023-02-14T20:04:48;102948.13;;;6.90;85.03
24752;BME280;27246;52.376;4.628;2023-02-14T20:09:50;102936.50;;;6.87;85.01
24752;BME280;27246;52.376;4.628;2023-02-14T20:14:51;102928.72;;;6.80;85.16
24752;BME280;27246;52.376;4.628;2023-02-14T20:19:55;102927.28;;;6.75;85.18
24752;BME280;27246;52.376;4.628;2023-02-14T20:24:57;102915.47;;;6.74;85.40
24752;BME280;27246;52.376;4.628;2023-02-14T20:29:59;102929.50;;;6.70;85.42
24752;BME280;27246;52.376;4.628;2023-02-14T20:35:01;102916.88;;;6.67;85.35
24752;BME280;27246;52.376;4.628;2023-02-14T20:40:03;102912.50;;;6.65;85.83
24752;BME280;27246;52.376;4.628;2023-02-14T20:45:06;102908.31;;;6.59;85.44
24752;BME280;27246;52.376;4.628;2023-02-14T20:50:08;102908.66;;;6.54;85.16
24752;BME280;27246;52.376;4.628;2023-02-14T20:55:10;102900.63;;;6.51;85.47
24752;BME280;27246;52.376;4.628;2023-02-14T21:00:12;102886.94;;;6.51;85.45
24752;BME280;27246;52.376;4.628;2023-02-14T21:05:14;102882.03;;;6.44;85.67
24752;BME280;27246;52.376;4.628;2023-02-14T21:10:18;102892.41;;;6.38;85.89
24752;BME280;27246;52.376;4.628;2023-02-14T21:15:20;102891.31;;;6.28;85.78
24752;BME280;27246;52.376;4.628;2023-02-14T21:20:22;102890.22;;;6.31;85.41
24752;BME280;27246;52.376;4.628;2023-02-14T21:25:24;102894.38;;;6.24;85.59
24752;BME280;27246;52.376;4.628;2023-02-14T21:30:27;102896.00;;;6.13;85.66
24752;BME280;27246;52.376;4.628;2023-02-14T21:35:34;102901.13;;;6.05;85.48
24752;BME280;27246;52.376;4.628;2023-02-14T21:40:36;102895.63;;;6.05;85.61
24752;BME280;27246;52.376;4.628;2023-02-14T21:45:38;102881.97;;;6.05;85.37
24752;BME280;27246;52.376;4.628;2023-02-14T21:50:55;102891.22;;;6.03;85.48
24752;BME280;27246;52.376;4.628;2023-02-14T21:56:05;102883.34;;;5.98;85.41
24752;BME280;27246;52.376;4.628;2023-02-14T22:01:07;102885.31;;;5.96;85.57
24752;BME280;27246;52.376;4.628;2023-02-14T22:06:14;102867.03;;;5.96;85.61
24752;BME280;27246;52.376;4.628;2023-02-14T22:11:17;102862.56;;;5.95;85.51
24752;BME280;27246;52.376;4.628;2023-02-14T22:16:20;102859.72;;;5.97;85.56
24752;BME280;27246;52.376;4.628;2023-02-14T22:21:24;102864.03;;;5.87;85.56
24752;BME280;27246;52.376;4.628;2023-02-14T22:26:29;102860.75;;;5.81;85.72
24752;BME280;27246;52.376;4.628;2023-02-14T22:31:34;102842.91;;;5.76;85.44
24752;BME280;27246;52.376;4.628;2023-02-14T22:36:36;102847.34;;;5.64;85.69
24752;BME280;27246;52.376;4.628;2023-02-14T22:41:38;102837.50;;;5.61;85.84
24752;BME280;27246;52.376;4.628;2023-02-14T22:46:40;102846.88;;;5.57;85.99
24752;BME280;27246;52.376;4.628;2023-02-14T22:51:43;102842.13;;;5.47;85.67
24752;BME280;27246;52.376;4.628;2023-02-14T22:56:46;102839.97;;;5.52;86.05
24752;BME280;27246;52.376;4.628;2023-02-14T23:01:50;102841.56;;;5.41;86.09
24752;BME280;27246;52.376;4.628;2023-02-14T23:06:52;102845.94;;;5.44;85.70
24752;BME280;27246;52.376;4.628;2023-02-14T23:11:54;102841.66;;;5.40;85.68
24752;BME280;27246;52.376;4.628;2023-02-14T23:16:57;102837.50;;;5.34;85.14
24752;BME280;27246;52.376;4.628;2023-02-14T23:22:30;102830.94;;;5.37;85.52
24752;BME280;27246;52.376;4.628;2023-02-14T23:27:36;102833.66;;;5.37;85.34
24752;BME280;27246;52.376;4.628;2023-02-14T23:32:38;102833.75;;;5.35;85.37
24752;BME280;27246;52.376;4.628;2023-02-14T23:37:40;102836.31;;;5.38;84.72
24752;BME280;27246;52.376;4.628;2023-02-14T23:42:42;102836.22;;;5.26;85.08
24752;BME280;27246;52.376;4.628;2023-02-14T23:47:44;102832.16;;;5.18;84.81
24752;BME280;27246;52.376;4.628;2023-02-14T23:52:47;102824.91;;;5.17;84.96
24752;BME280;27246;52.376;4.628;2023-02-14T23:57:48;102815.47;;;5.09;84.80
